Time;durP1;ratioP1;P1;durP2;ratioP2;P2;SDS_P1;SDS_P2;PMS_P1;PMS_P2;Temp;Humidity;BMP_temperature;BMP_pressure;BME280_temperature;BME280_humidity;BME280_pressure;Samples;Min_cycle;Max_cycle;Signal;HPM_P1;HPM_P2
2023/09/17 00:01:16;;;;;;;;;;;25.20;56.00;;;;;;5095025;28;19908;-68
2023/09/17 00:03:43;;;;;;;;;;;25.30;55.30;;;;;;5094981;28;19912;-69
2023/09/17 00:06:09;;;;;;;;;;;25.40;55.40;;;;;;5083847;28;20319;-68
2023/09/17 00:08:38;;;;;;;;;;;25.40;56.20;;;;;;5085407;28;19912;-70
2023/09/17 00:11:06;;;;;;;;;;;25.50;55.80;;;;;;5094508;28;19916;-68
2023/09/17 00:13:33;;;;;;;;;;;25.70;55.90;;;;;;5093344;28;19915;-69
2023/09/17 00:16:00;;;;;;;;;;;25.80;55.70;;;;;;5084643;28;19977;-70
2023/09/17 00:18:27;;;;;;;;;;;25.80;55.20;;;;;;5083542;28;19908;-70
2023/09/17 00:20:53;;;;;;;;;;;26.00;55.20;;;;;;5093993;28;19919;-70
2023/09/17 00:23:20;;;;;;;;;;;26.00;54.90;;;;;;5082101;28;19908;-68
2023/09/17 00:25:47;;;;;;;;;;;26.20;54.80;;;;;;5089355;28;20411;-68
2023/09/17 00:28:13;;;;;;;;;;;26.20;54.80;;;;;;5094225;28;19995;-69
2023/09/17 00:30:40;;;;;;;;;;;26.30;54.30;;;;;;5086661;28;19912;-69
2023/09/17 00:33:07;;;;;;;;;;;26.50;54.70;;;;;;5077426;28;19916;-70
2023/09/17 00:35:33;;;;;;;;;;;26.60;54.90;;;;;;5077557;28;19924;-68
2023/09/17 00:38:00;;;;;;;;;;;26.70;54.30;;;;;;5078008;28;19912;-67
2023/09/17 00:40:31;;;;;;;;;;;26.80;53.80;;;;;;5094666;28;20323;-69
2023/09/17 00:42:58;;;;;;;;;;;26.90;54.10;;;;;;5094248;28;20007;-69
2023/09/17 00:45:24;;;;;;;;;;;27.10;53.80;;;;;;5093102;28;20288;-69
2023/09/17 00:47:51;;;;;;;;;;;27.10;54.00;;;;;;5093281;28;19927;-68
2023/09/17 00:50:18;;;;;;;;;;;27.20;52.60;;;;;;5094382;28;19908;-68
2023/09/17 00:52:45;;;;;;;;;;;27.30;53.50;;;;;;5094255;28;20323;-70
2023/09/17 00:55:12;;;;;;;;;;;27.40;52.70;;;;;;5091764;28;20341;-69
2023/09/17 00:57:39;;;;;;;;;;;27.60;52.60;;;;;;5092207;28;19909;-69
2023/09/17 01:00:09;;;;;;;;;;;27.70;52.20;;;;;;5091004;28;20223;-69
2023/09/17 01:02:36;;;;;;;;;;;27.80;52.30;;;;;;5091940;28;20350;-69
2023/09/17 01:05:04;;;;;;;;;;;28.00;52.60;;;;;;5071733;28;19957;-70
2023/09/17 01:07:32;;;;;;;;;;;28.10;52.60;;;;;;5072165;28;19905;-68
2023/09/17 01:09:59;;;;;;;;;;;28.30;52.40;;;;;;5092536;28;19916;-67
2023/09/17 01:12:27;;;;;;;;;;;28.30;51.20;;;;;;5093822;28;19912;-68
2023/09/17 01:14:54;;;;;;;;;;;28.30;51.60;;;;;;5093919;28;19961;-67
2023/09/17 01:17:27;;;;;;;;;;;28.50;51.00;;;;;;5093654;28;19958;-68
2023/09/17 01:19:56;;;;;;;;;;;28.50;51.40;;;;;;5093381;28;20383;-68
2023/09/17 01:22:29;;;;;;;;;;;28.70;51.30;;;;;;5093416;28;19912;-68
2023/09/17 01:24:56;;;;;;;;;;;28.90;50.30;;;;;;5111753;28;19912;-68
2023/09/17 01:27:23;;;;;;;;;;;29.10;50.60;;;;;;5112525;28;20368;-69
2023/09/17 01:29:50;;;;;;;;;;;29.20;50.10;;;;;;5096426;28;20007;-70
2023/09/17 01:32:17;;;;;;;;;;;29.20;49.60;;;;;;5093420;28;19919;-67
2023/09/17 01:34:46;;;;;;;;;;;29.40;50.20;;;;;;5092085;28;20002;-69
2023/09/17 01:37:18;;;;;;;;;;;29.60;49.90;;;;;;5093469;28;19947;-69
2023/09/17 01:39:55;;;;;;;;;;;29.70;48.80;;;;;;5091881;28;20032;-68
2023/09/17 01:42:23;;;;;;;;;;;29.80;48.90;;;;;;5093113;28;20003;-69
2023/09/17 01:44:49;;;;;;;;;;;30.10;49.00;;;;;;5093124;28;19974;-69
2023/09/17 01:47:17;;;;;;;;;;;30.20;50.20;;;;;;5092983;28;20384;-69
2023/09/17 01:49:45;;;;;;;;;;;30.50;49.40;;;;;;5092899;28;19912;-69
2023/09/17 01:52:12;;;;;;;;;;;30.80;48.60;;;;;;5082552;28;19913;-69
2023/09/17 01:54:39;;;;;;;;;;;30.90;47.00;;;;;;5073916;28;19935;-69
2023/09/17 01:57:06;;;;;;;;;;;31.20;48.90;;;;;;5092523;28;19928;-69
2023/09/17 01:59:33;;;;;;;;;;;31.40;47.60;;;;;;5092755;28;19916;-68
2023/09/17 02:02:00;;;;;;;;;;;31.60;47.40;;;;;;5093177;28;19919;-68
2023/09/17 02:04:27;;;;;;;;;;;31.80;46.20;;;;;;5093347;28;20017;-70
2023/09/17 02:06:54;;;;;;;;;;;31.80;45.60;;;;;;5093270;28;20264;-68
2023/09/17 02:09:21;;;;;;;;;;;31.60;45.40;;;;;;5093113;28;19950;-69
2023/09/17 02:11:48;;;;;;;;;;;31.70;45.60;;;;;;5093164;28;19909;-68
2023/09/17 02:14:15;;;;;;;;;;;31.90;47.90;;;;;;5093246;28;19912;-68
2023/09/17 02:16:41;;;;;;;;;;;31.90;45.20;;;;;;5092972;28;19955;-70
2023/09/17 02:19:09;;;;;;;;;;;32.00;45.20;;;;;;5092777;28;20322;-69
2023/09/17 02:21:36;;;;;;;;;;;31.80;44.10;;;;;;5092866;28;19908;-68
2023/09/17 02:24:03;;;;;;;;;;;31.80;43.90;;;;;;5092789;28;19908;-68
2023/09/17 02:26:30;;;;;;;;;;;31.90;45.60;;;;;;5092955;28;20376;-69
2023/09/17 02:28:56;;;;;;;;;;;32.20;45.80;;;;;;5092898;28;19908;-68
2023/09/17 02:31:24;;;;;;;;;;;32.50;45.10;;;;;;5092814;28;20003;-69
2023/09/17 02:33:50;;;;;;;;;;;32.80;44.30;;;;;;5092705;28;19966;-69
2023/09/17 02:36:17;;;;;;;;;;;33.00;44.00;;;;;;5092680;28;19960;-68
2023/09/17 02:38:43;;;;;;;;;;;33.30;44.60;;;;;;5092708;28;19915;-70
2023/09/17 02:41:10;;;;;;;;;;;34.20;44.30;;;;;;5092850;28;19909;-70
2023/09/17 02:43:37;;;;;;;;;;;35.00;43.20;;;;;;5092767;28;19915;-70
2023/09/17 02:46:04;;;;;;;;;;;35.30;42.00;;;;;;5092701;28;19961;-69
2023/09/17 02:48:33;;;;;;;;;;;35.80;41.90;;;;;;5092207;28;19928;-69
2023/09/17 02:51:00;;;;;;;;;;;36.90;41.60;;;;;;5092381;28;19920;-72
2023/09/17 02:53:26;;;;;;;;;;;37.50;40.80;;;;;;5092574;28;19915;-72
2023/09/17 02:55:54;;;;;;;;;;;38.70;41.40;;;;;;5092850;28;19916;-71
2023/09/17 02:58:21;;;;;;;;;;;39.90;41.20;;;;;;5094899;28;19908;-70
2023/09/17 03:00:48;;;;;;;;;;;40.50;39.60;;;;;;5096727;28;19915;-70
2023/09/17 03:03:15;;;;;;;;;;;41.00;39.20;;;;;;5096679;28;20376;-72
2023/09/17 03:05:48;;;;;;;;;;;41.40;39.40;;;;;;5096642;28;19994;-70
2023/09/17 03:08:15;;;;;;;;;;;41.60;39.70;;;;;;5096553;28;19916;-72
2023/09/17 03:10:44;;;;;;;;;;;42.60;38.60;;;;;;5096484;28;20003;-70
2023/09/17 03:13:14;;;;;;;;;;;42.60;39.50;;;;;;5096418;28;20269;-69
2023/09/17 03:15:41;;;;;;;;;;;42.70;38.50;;;;;;5096207;28;19916;-70
2023/09/17 03:18:08;;;;;;;;;;;43.00;39.20;;;;;;5096307;28;20002;-68
2023/09/17 03:20:35;;;;;;;;;;;43.60;38.20;;;;;;5096438;28;19908;-71
2023/09/17 03:23:04;;;;;;;;;;;44.20;38.70;;;;;;5096075;28;19916;-71
2023/09/17 03:25:31;;;;;;;;;;;44.90;38.20;;;;;;5096200;28;20011;-71
2023/09/17 03:28:01;;;;;;;;;;;45.00;37.40;;;;;;5095402;28;20384;-71
2023/09/17 03:30:28;;;;;;;;;;;45.30;37.90;;;;;;5095978;28;19908;-71
2023/09/17 03:32:54;;;;;;;;;;;45.20;36.80;;;;;;5096180;28;19912;-70
2023/09/17 03:35:29;;;;;;;;;;;44.90;36.70;;;;;;5096060;28;19912;-70
2023/09/17 03:37:56;;;;;;;;;;;44.80;36.80;;;;;;5096180;28;19908;-69
2023/09/17 03:40:23;;;;;;;;;;;44.40;37.50;;;;;;5096151;28;19912;-70
2023/09/17 03:42:49;;;;;;;;;;;44.90;36.80;;;;;;5095922;28;20376;-69
2023/09/17 03:45:16;;;;;;;;;;;44.80;37.00;;;;;;5095880;28;20361;-70
2023/09/17 03:47:44;;;;;;;;;;;45.60;37.80;;;;;;5095659;28;19923;-69
2023/09/17 03:50:13;;;;;;;;;;;45.90;37.10;;;;;;5095753;28;19912;-70
2023/09/17 03:52:42;;;;;;;;;;;46.40;37.10;;;;;;5095756;28;19908;-69
2023/09/17 03:55:09;;;;;;;;;;;46.20;36.80;;;;;;5095558;28;20289;-70
2023/09/17 03:57:36;;;;;;;;;;;46.50;36.50;;;;;;5095697;28;20362;-70
2023/09/17 04:00:07;;;;;;;;;;;47.00;37.40;;;;;;5095418;28;19908;-71
2023/09/17 04:02:35;;;;;;;;;;;47.30;36.90;;;;;;5095908;28;20276;-70
2023/09/17 04:05:08;;;;;;;;;;;48.20;36.80;;;;;;5095435;28;20327;-71
2023/09/17 04:07:35;;;;;;;;;;;47.70;36.10;;;;;;5095159;28;19995;-71
2023/09/17 04:10:02;;;;;;;;;;;47.40;35.70;;;;;;5095075;28;19934;-71
2023/09/17 04:12:29;;;;;;;;;;;46.20;35.40;;;;;;5095185;28;19952;-74
2023/09/17 04:14:56;;;;;;;;;;;46.30;36.20;;;;;;5091941;28;19915;-71
2023/09/17 04:17:23;;;;;;;;;;;46.20;36.60;;;;;;5094458;28;19966;-70
2023/09/17 04:19:50;;;;;;;;;;;46.70;37.40;;;;;;5085074;28;20365;-75
2023/09/17 04:22:17;;;;;;;;;;;47.00;36.40;;;;;;5093981;28;20474;-70
2023/09/17 04:24:44;;;;;;;;;;;47.00;36.40;;;;;;5094443;28;19916;-71
2023/09/17 04:27:11;;;;;;;;;;;46.90;35.70;;;;;;5094508;28;19908;-70
2023/09/17 04:29:37;;;;;;;;;;;47.10;35.20;;;;;;5093995;28;20319;-69
2023/09/17 04:32:04;;;;;;;;;;;46.50;35.40;;;;;;5094384;28;19908;-70
2023/09/17 04:34:31;;;;;;;;;;;46.40;35.60;;;;;;5093851;28;19912;-72
2023/09/17 04:36:58;;;;;;;;;;;46.70;35.80;;;;;;5083337;28;19920;-74
2023/09/17 04:39:26;;;;;;;;;;;46.80;34.70;;;;;;5088050;28;19912;-71
2023/09/17 04:41:52;;;;;;;;;;;46.60;35.10;;;;;;5093163;28;19915;-69
2023/09/17 04:44:19;;;;;;;;;;;46.60;35.40;;;;;;5093061;28;19909;-70
2023/09/17 04:46:47;;;;;;;;;;;47.20;35.90;;;;;;5093345;28;19912;-73
2023/09/17 04:49:14;;;;;;;;;;;47.60;35.20;;;;;;5093462;28;19953;-70
2023/09/17 04:51:41;;;;;;;;;;;48.20;35.70;;;;;;5093812;28;20450;-73
2023/09/17 04:54:07;;;;;;;;;;;48.70;35.50;;;;;;5093832;28;19961;-72
2023/09/17 04:56:35;;;;;;;;;;;48.90;34.70;;;;;;5093774;28;20376;-71
2023/09/17 04:59:02;;;;;;;;;;;48.40;34.60;;;;;;5090192;28;19912;-71
2023/09/17 05:01:29;;;;;;;;;;;48.10;35.10;;;;;;5086842;28;19999;-70
2023/09/17 05:03:56;;;;;;;;;;;47.50;34.90;;;;;;5085924;28;20383;-71
2023/09/17 05:06:23;;;;;;;;;;;47.50;34.80;;;;;;5087660;28;19999;-71
2023/09/17 05:08:50;;;;;;;;;;;47.30;35.40;;;;;;5088201;28;19987;-70
2023/09/17 05:11:16;;;;;;;;;;;47.30;35.30;;;;;;5090758;28;19912;-70
2023/09/17 05:13:43;;;;;;;;;;;47.40;35.10;;;;;;5091926;28;19908;-71
2023/09/17 05:16:10;;;;;;;;;;;47.30;35.00;;;;;;5091126;28;19921;-72
2023/09/17 05:18:37;;;;;;;;;;;47.90;34.90;;;;;;5087208;28;19913;-71
2023/09/17 05:21:04;;;;;;;;;;;48.20;35.10;;;;;;5082804;28;19954;-71
2023/09/17 05:23:31;;;;;;;;;;;47.90;34.80;;;;;;5089861;28;19912;-71
2023/09/17 05:25:57;;;;;;;;;;;47.70;35.10;;;;;;5093062;28;19908;-73
2023/09/17 05:28:25;;;;;;;;;;;48.10;34.80;;;;;;5092672;28;19912;-73
2023/09/17 05:30:55;;;;;;;;;;;48.20;35.40;;;;;;5087104;28;19909;-72
2023/09/17 05:33:23;;;;;;;;;;;48.30;34.50;;;;;;5090619;28;19927;-74
2023/09/17 05:35:56;;;;;;;;;;;48.60;36.20;;;;;;5090286;28;19921;-72
2023/09/17 05:38:29;;;;;;;;;;;49.10;35.00;;;;;;5091980;28;19969;-72
2023/09/17 05:40:56;;;;;;;;;;;49.10;34.80;;;;;;5093384;28;20276;-72
2023/09/17 05:43:24;;;;;;;;;;;49.30;35.40;;;;;;5087516;28;20326;-71
2023/09/17 05:45:56;;;;;;;;;;;49.10;34.80;;;;;;5081880;28;19957;-72
2023/09/17 05:48:24;;;;;;;;;;;49.20;35.00;;;;;;5091681;28;19931;-74
2023/09/17 05:50:52;;;;;;;;;;;48.70;35.10;;;;;;5092905;28;19908;-73
2023/09/17 05:53:19;;;;;;;;;;;48.70;33.20;;;;;;5089630;28;19920;-72
2023/09/17 05:55:46;;;;;;;;;;;48.10;33.40;;;;;;5083313;28;19916;-71
2023/09/17 05:58:12;;;;;;;;;;;47.40;33.00;;;;;;5091060;28;20354;-72
2023/09/17 06:00:39;;;;;;;;;;;47.10;33.80;;;;;;5093022;28;19947;-71
2023/09/17 06:03:06;;;;;;;;;;;46.60;33.10;;;;;;5092703;28;20272;-71
2023/09/17 06:05:32;;;;;;;;;;;46.60;34.00;;;;;;5092537;28;19912;-72
2023/09/17 06:07:59;;;;;;;;;;;46.90;33.90;;;;;;5092386;28;20414;-73
2023/09/17 06:10:26;;;;;;;;;;;47.10;33.90;;;;;;5092347;28;19908;-72
2023/09/17 06:12:53;;;;;;;;;;;47.10;33.80;;;;;;5092740;28;20323;-72
2023/09/17 06:15:20;;;;;;;;;;;47.60;34.50;;;;;;5092499;28;19916;-72
2023/09/17 06:17:46;;;;;;;;;;;47.50;33.30;;;;;;5092253;28;19920;-72
2023/09/17 06:20:13;;;;;;;;;;;47.40;33.50;;;;;;5092366;28;19946;-72
2023/09/17 06:22:39;;;;;;;;;;;47.10;34.30;;;;;;5092729;28;20003;-74
2023/09/17 06:25:06;;;;;;;;;;;47.00;32.90;;;;;;5092618;28;19915;-71
2023/09/17 06:27:34;;;;;;;;;;;47.00;33.50;;;;;;5092537;28;19916;-72
2023/09/17 06:30:01;;;;;;;;;;;46.70;34.10;;;;;;5092453;28;19908;-70
2023/09/17 06:32:28;;;;;;;;;;;46.60;33.50;;;;;;5091729;28;19943;-73
2023/09/17 06:34:55;;;;;;;;;;;46.10;33.70;;;;;;5092429;28;19912;-71
2023/09/17 06:37:21;;;;;;;;;;;46.00;33.60;;;;;;5092241;28;19916;-72
2023/09/17 06:39:48;;;;;;;;;;;45.70;33.50;;;;;;5092100;28;19993;-74
2023/09/17 06:42:15;;;;;;;;;;;45.20;33.30;;;;;;5092335;28;19927;-70
2023/09/17 06:44:41;;;;;;;;;;;44.00;33.40;;;;;;5092394;28;19916;-70
2023/09/17 06:47:08;;;;;;;;;;;42.40;33.80;;;;;;5092188;28;19916;-71
2023/09/17 06:49:35;;;;;;;;;;;40.60;34.30;;;;;;5091713;28;19954;-70
2023/09/17 06:52:01;;;;;;;;;;;39.20;35.20;;;;;;5092010;28;20279;-71
2023/09/17 06:54:28;;;;;;;;;;;38.20;36.40;;;;;;5092338;28;20003;-69
2023/09/17 06:56:55;;;;;;;;;;;37.70;36.10;;;;;;5092048;28;19963;-72
2023/09/17 06:59:21;;;;;;;;;;;36.90;36.90;;;;;;5091676;28;20366;-74
2023/09/17 07:01:48;;;;;;;;;;;36.20;37.00;;;;;;5091773;28;20112;-73
2023/09/17 07:04:14;;;;;;;;;;;35.60;39.50;;;;;;5092376;28;19958;-70
2023/09/17 07:06:41;;;;;;;;;;;34.90;40.80;;;;;;5092127;28;19912;-70
2023/09/17 07:09:08;;;;;;;;;;;34.20;42.20;;;;;;5091816;28;19908;-70
2023/09/17 07:11:34;;;;;;;;;;;33.60;42.80;;;;;;5091956;28;19912;-72
2023/09/17 07:14:05;;;;;;;;;;;33.20;43.10;;;;;;5092302;28;20368;-71
2023/09/17 07:16:32;;;;;;;;;;;32.70;43.20;;;;;;5091967;28;19954;-70
2023/09/17 07:18:58;;;;;;;;;;;32.40;44.00;;;;;;5088063;28;19915;-70
2023/09/17 07:21:25;;;;;;;;;;;32.10;44.50;;;;;;5090881;28;19916;-72
2023/09/17 07:23:52;;;;;;;;;;;31.70;44.80;;;;;;5092261;28;19908;-71
2023/09/17 07:26:20;;;;;;;;;;;31.30;45.20;;;;;;5092097;28;19912;-71
2023/09/17 07:28:46;;;;;;;;;;;30.90;45.40;;;;;;5091895;28;19915;-75
2023/09/17 07:31:14;;;;;;;;;;;30.60;46.20;;;;;;5091845;28;20389;-73
2023/09/17 07:33:42;;;;;;;;;;;30.40;46.60;;;;;;5091999;28;19927;-72
2023/09/17 07:36:13;;;;;;;;;;;30.20;47.40;;;;;;5091950;28;20377;-71
2023/09/17 07:38:40;;;;;;;;;;;29.90;48.00;;;;;;5091681;28;19908;-70
2023/09/17 07:41:07;;;;;;;;;;;29.80;48.80;;;;;;5091572;28;19912;-71
2023/09/17 07:43:33;;;;;;;;;;;29.50;48.70;;;;;;5092556;28;19908;-70
2023/09/17 07:46:00;;;;;;;;;;;29.30;49.30;;;;;;5095607;28;20353;-68
2023/09/17 07:48:29;;;;;;;;;;;29.10;49.70;;;;;;5094837;28;20003;-68
2023/09/17 07:50:59;;;;;;;;;;;28.90;50.40;;;;;;5094913;28;19908;-69
2023/09/17 07:53:26;;;;;;;;;;;28.70;51.20;;;;;;5095027;28;20319;-71
2023/09/17 07:55:52;;;;;;;;;;;28.40;51.20;;;;;;5095393;28;19912;-70
2023/09/17 07:58:19;;;;;;;;;;;28.30;52.60;;;;;;5095014;28;19908;-70
2023/09/17 08:00:46;;;;;;;;;;;28.10;52.80;;;;;;5094915;28;19951;-70
2023/09/17 08:03:16;;;;;;;;;;;27.90;53.00;;;;;;5095111;28;19912;-69
2023/09/17 08:05:46;;;;;;;;;;;27.70;53.20;;;;;;5094851;28;19923;-69
2023/09/17 08:08:14;;;;;;;;;;;27.50;53.80;;;;;;5094755;28;19908;-69
2023/09/17 08:10:41;;;;;;;;;;;27.30;54.00;;;;;;5095048;28;20289;-71
2023/09/17 08:13:08;;;;;;;;;;;27.10;54.80;;;;;;5095312;28;19908;-69
2023/09/17 08:15:35;;;;;;;;;;;27.00;55.70;;;;;;5094785;28;20001;-69
2023/09/17 08:18:02;;;;;;;;;;;26.90;56.10;;;;;;5094630;28;19908;-70
2023/09/17 08:20:28;;;;;;;;;;;26.70;56.50;;;;;;5089855;28;19919;-70
2023/09/17 08:22:56;;;;;;;;;;;26.60;57.00;;;;;;5083686;28;19905;-73
2023/09/17 08:25:23;;;;;;;;;;;26.40;57.20;;;;;;5093137;28;19950;-69
2023/09/17 08:27:52;;;;;;;;;;;26.30;57.80;;;;;;5092183;28;20007;-70
2023/09/17 08:30:20;;;;;;;;;;;26.20;58.80;;;;;;5093838;28;19908;-69
2023/09/17 08:32:46;;;;;;;;;;;26.10;58.90;;;;;;5094085;28;19912;-68
2023/09/17 08:35:14;;;;;;;;;;;25.90;59.50;;;;;;5092971;28;20407;-69
2023/09/17 08:37:42;;;;;;;;;;;25.90;59.80;;;;;;5089113;28;20391;-69
2023/09/17 08:40:13;;;;;;;;;;;25.80;60.90;;;;;;5091996;28;19912;-69
2023/09/17 08:42:43;;;;;;;;;;;25.60;60.10;;;;;;5093528;28;19912;-70
2023/09/17 08:45:11;;;;;;;;;;;25.40;61.10;;;;;;5093608;28;19919;-69
2023/09/17 08:47:38;;;;;;;;;;;25.30;61.70;;;;;;5088975;28;20292;-68
2023/09/17 08:50:07;;;;;;;;;;;25.20;62.30;;;;;;5083067;28;19916;-69
2023/09/17 08:52:35;;;;;;;;;;;25.20;62.70;;;;;;5075641;28;20515;-68
2023/09/17 08:55:04;;;;;;;;;;;25.10;63.20;;;;;;5084518;28;19923;-69
2023/09/17 08:57:34;;;;;;;;;;;25.00;63.60;;;;;;5079486;28;19970;-69
2023/09/17 09:00:09;;;;;;;;;;;24.90;64.10;;;;;;5089146;28;19985;-70
2023/09/17 09:02:41;;;;;;;;;;;24.80;64.20;;;;;;5085608;28;21259;-73
2023/09/17 09:05:08;;;;;;;;;;;24.70;64.70;;;;;;5091997;28;19920;-70
2023/09/17 09:07:36;;;;;;;;;;;24.60;65.00;;;;;;5092980;28;19916;-70
2023/09/17 09:10:03;;;;;;;;;;;24.50;65.70;;;;;;5088313;28;19920;-72
2023/09/17 09:12:30;;;;;;;;;;;24.40;65.90;;;;;;5081856;28;20370;-69
2023/09/17 09:14:58;;;;;;;;;;;24.30;66.10;;;;;;5092490;28;19912;-70
2023/09/17 09:17:26;;;;;;;;;;;24.20;66.30;;;;;;5093298;28;19942;-71
2023/09/17 09:19:55;;;;;;;;;;;24.10;66.90;;;;;;5080263;28;19954;-70
2023/09/17 09:22:23;;;;;;;;;;;24.10;67.40;;;;;;5092336;28;19957;-70
2023/09/17 09:24:50;;;;;;;;;;;24.00;67.70;;;;;;5092628;28;19955;-70
2023/09/17 09:27:17;;;;;;;;;;;23.90;68.40;;;;;;5093025;28;19915;-69
2023/09/17 09:29:43;;;;;;;;;;;23.80;68.70;;;;;;5088190;28;19919;-71
2023/09/17 09:32:10;;;;;;;;;;;23.80;69.40;;;;;;5089133;28;19919;-71
2023/09/17 09:34:38;;;;;;;;;;;23.60;69.50;;;;;;5089287;28;19912;-70
2023/09/17 09:37:06;;;;;;;;;;;23.50;69.90;;;;;;5087931;28;19956;-68
2023/09/17 09:39:35;;;;;;;;;;;23.50;70.40;;;;;;5081477;28;20285;-71
2023/09/17 09:42:02;;;;;;;;;;;23.40;70.60;;;;;;5086126;28;19924;-69
2023/09/17 09:44:30;;;;;;;;;;;23.30;71.00;;;;;;5090227;28;19927;-69
2023/09/17 09:46:57;;;;;;;;;;;23.30;71.70;;;;;;5091318;28;19942;-70
2023/09/17 09:49:24;;;;;;;;;;;23.20;72.00;;;;;;5090551;28;19912;-71
2023/09/17 09:51:55;;;;;;;;;;;23.10;72.30;;;;;;5090659;28;20396;-69
2023/09/17 09:54:21;;;;;;;;;;;23.10;72.60;;;;;;5089013;28;19916;-69
2023/09/17 09:56:48;;;;;;;;;;;23.10;73.00;;;;;;5091183;28;19915;-72
2023/09/17 09:59:15;;;;;;;;;;;23.00;73.00;;;;;;5091301;28;19939;-68
2023/09/17 10:01:42;;;;;;;;;;;23.00;72.80;;;;;;5091044;28;19920;-69
2023/09/17 10:04:10;;;;;;;;;;;22.90;73.10;;;;;;5089355;28;19916;-69
2023/09/17 10:06:40;;;;;;;;;;;22.90;73.00;;;;;;5089036;28;20030;-70
2023/09/17 10:09:09;;;;;;;;;;;22.80;73.50;;;;;;5089745;28;20387;-71
2023/09/17 10:11:36;;;;;;;;;;;22.80;73.60;;;;;;5090908;28;19998;-69
2023/09/17 10:14:03;;;;;;;;;;;22.70;74.10;;;;;;5084595;28;20053;-70
2023/09/17 10:16:36;;;;;;;;;;;22.70;74.20;;;;;;5091612;28;20007;-69
2023/09/17 10:19:06;;;;;;;;;;;22.60;74.10;;;;;;5089641;28;20397;-70
2023/09/17 10:21:39;;;;;;;;;;;22.60;74.50;;;;;;5091228;28;20296;-70
2023/09/17 10:24:06;;;;;;;;;;;22.60;74.30;;;;;;5091593;28;19923;-70
2023/09/17 10:26:41;;;;;;;;;;;22.60;73.80;;;;;;5091721;28;20009;-72
2023/09/17 10:29:08;;;;;;;;;;;22.50;74.00;;;;;;5090812;28;19915;-69
2023/09/17 10:31:37;;;;;;;;;;;22.40;73.50;;;;;;5089528;28;19957;-69
2023/09/17 10:34:05;;;;;;;;;;;22.30;73.70;;;;;;5087294;28;20381;-70
2023/09/17 10:36:32;;;;;;;;;;;22.30;74.10;;;;;;5070791;28;19925;-71
2023/09/17 10:38:59;;;;;;;;;;;22.40;74.40;;;;;;5079272;28;19999;-70
2023/09/17 10:41:29;;;;;;;;;;;22.30;74.40;;;;;;5078089;28;19912;-72
2023/09/17 10:43:57;;;;;;;;;;;22.30;74.70;;;;;;5081430;28;19970;-71
2023/09/17 10:46:24;;;;;;;;;;;22.30;74.60;;;;;;5091165;28;20254;-69
2023/09/17 10:48:53;;;;;;;;;;;22.30;74.90;;;;;;5089928;28;19951;-68
2023/09/17 10:51:20;;;;;;;;;;;22.20;74.90;;;;;;5073136;28;20003;-69
2023/09/17 10:53:47;;;;;;;;;;;22.10;75.50;;;;;;5078140;28;19919;-72
2023/09/17 10:56:14;;;;;;;;;;;22.10;75.90;;;;;;5090945;28;19916;-69
2023/09/17 10:58:43;;;;;;;;;;;22.00;75.90;;;;;;5089190;28;20337;-69
2023/09/17 11:01:12;;;;;;;;;;;21.90;75.30;;;;;;5090478;28;19969;-69
2023/09/17 11:03:43;;;;;;;;;;;21.90;75.80;;;;;;5091625;28;20369;-74
2023/09/17 11:06:16;;;;;;;;;;;21.80;76.10;;;;;;5086494;28;19999;-70
2023/09/17 11:08:46;;;;;;;;;;;21.80;76.60;;;;;;5079456;28;20374;-70
2023/09/17 11:11:14;;;;;;;;;;;21.70;76.90;;;;;;5088486;28;19919;-73
2023/09/17 11:13:42;;;;;;;;;;;21.70;77.10;;;;;;5091730;28;19954;-73
2023/09/17 11:16:09;;;;;;;;;;;21.60;77.30;;;;;;5086971;28;19920;-68
2023/09/17 11:18:37;;;;;;;;;;;21.60;77.80;;;;;;5091045;28;20359;-69
2023/09/17 11:21:08;;;;;;;;;;;21.60;78.20;;;;;;5093718;28;20375;-70
2023/09/17 11:23:35;;;;;;;;;;;21.50;78.10;;;;;;5094702;28;19916;-70
2023/09/17 11:26:02;;;;;;;;;;;21.40;78.30;;;;;;5089752;28;19986;-68
2023/09/17 11:28:38;;;;;;;;;;;21.40;78.80;;;;;;5090312;28;19999;-70
2023/09/17 11:31:09;;;;;;;;;;;21.30;78.90;;;;;;5089410;28;20288;-72
2023/09/17 11:33:39;;;;;;;;;;;21.30;79.20;;;;;;5094540;28;19916;-71
2023/09/17 11:36:07;;;;;;;;;;;21.30;79.40;;;;;;5092154;28;20276;-70
2023/09/17 11:38:33;;;;;;;;;;;21.30;79.50;;;;;;5094170;28;20289;-70
2023/09/17 11:41:15;;;;;;;;;;;21.30;79.40;;;;;;5094429;28;20017;-70
2023/09/17 11:43:49;;;;;;;;;;;21.30;79.70;;;;;;5092404;28;20004;-71
2023/09/17 11:46:16;;;;;;;;;;;21.20;79.60;;;;;;5095234;28;20380;-73
2023/09/17 11:48:43;;;;;;;;;;;21.10;80.30;;;;;;5094273;28;20389;-71
2023/09/17 11:51:20;;;;;;;;;;;21.10;80.60;;;;;;5094781;28;19915;-69
2023/09/17 11:53:51;;;;;;;;;;;21.00;80.80;;;;;;5092947;28;19943;-70
2023/09/17 11:56:19;;;;;;;;;;;20.90;81.00;;;;;;5094554;28;19977;-69
2023/09/17 11:58:57;;;;;;;;;;;20.90;80.80;;;;;;5089904;28;19938;-69
2023/09/17 12:01:25;;;;;;;;;;;20.90;82.20;;;;;;5074474;28;20003;-69
2023/09/17 12:03:53;;;;;;;;;;;20.80;81.10;;;;;;5074791;28;19908;-71
2023/09/17 12:06:20;;;;;;;;;;;20.70;81.20;;;;;;5093277;28;19977;-70
2023/09/17 12:08:47;;;;;;;;;;;20.70;81.50;;;;;;5090765;28;20361;-70
2023/09/17 12:11:21;;;;;;;;;;;20.70;81.20;;;;;;5074677;28;19908;-72
2023/09/17 12:13:56;;;;;;;;;;;20.60;81.50;;;;;;5074314;28;19916;-70
2023/09/17 12:16:27;;;;;;;;;;;20.50;81.00;;;;;;5082776;28;19924;-72
2023/09/17 12:18:54;;;;;;;;;;;20.50;81.00;;;;;;5089337;28;19919;-70
2023/09/17 12:21:25;;;;;;;;;;;20.50;81.10;;;;;;5087619;28;19920;-71
2023/09/17 12:24:00;;;;;;;;;;;20.40;81.20;;;;;;5093743;28;20405;-70
2023/09/17 12:26:34;;;;;;;;;;;20.40;81.10;;;;;;5093864;28;20442;-69
2023/09/17 12:29:00;;;;;;;;;;;20.30;81.40;;;;;;5085915;28;19920;-70
2023/09/17 12:31:27;;;;;;;;;;;20.30;82.40;;;;;;5091339;28;19991;-69
2023/09/17 12:33:54;;;;;;;;;;;20.20;81.40;;;;;;5093331;28;19961;-70
2023/09/17 12:36:21;;;;;;;;;;;20.10;81.20;;;;;;5093096;28;20340;-71
2023/09/17 12:38:49;;;;;;;;;;;20.20;81.00;;;;;;5088697;28;19913;-69
2023/09/17 12:41:15;;;;;;;;;;;20.00;81.10;;;;;;5093766;28;20015;-71
2023/09/17 12:43:42;;;;;;;;;;;20.00;74.70;;;;;;5093525;28;19908;-69
2023/09/17 12:46:09;;;;;;;;;;;20.20;75.60;;;;;;5094874;28;20364;-71
2023/09/17 12:48:36;;;;;;;;;;;20.30;76.40;;;;;;5091812;28;19920;-70
2023/09/17 12:51:03;;;;;;;;;;;20.40;77.20;;;;;;5072394;28;19909;-73
2023/09/17 12:53:30;;;;;;;;;;;20.50;81.20;;;;;;5090325;28;19908;-69
2023/09/17 12:56:02;;;;;;;;;;;20.60;83.80;;;;;;5092179;28;20246;-70
2023/09/17 12:58:31;;;;;;;;;;;20.60;87.30;;;;;;5083289;28;19912;-71
2023/09/17 13:01:07;;;;;;;;;;;20.70;93.60;;;;;;5091608;28;19961;-74
2023/09/17 13:03:34;;;;;;;;;;;20.80;97.40;;;;;;5092215;28;19931;-72
2023/09/17 13:06:00;;;;;;;;;;;20.90;99.90;;;;;;5076615;28;19965;-69
2023/09/17 13:08:28;;;;;;;;;;;20.80;99.90;;;;;;5076828;28;19912;-71
2023/09/17 13:10:56;;;;;;;;;;;20.80;99.90;;;;;;5093679;28;19957;-70
2023/09/17 13:13:23;;;;;;;;;;;20.70;99.90;;;;;;5073448;28;20407;-68
2023/09/17 13:15:50;;;;;;;;;;;20.60;99.90;;;;;;5073614;28;20448;-69
2023/09/17 13:18:16;;;;;;;;;;;20.50;99.90;;;;;;5074858;28;20265;-69
2023/09/17 13:20:43;;;;;;;;;;;20.40;99.90;;;;;;5092664;28;19908;-69
2023/09/17 13:23:10;;;;;;;;;;;20.40;99.90;;;;;;5093286;28;19965;-71
2023/09/17 13:25:36;;;;;;;;;;;20.40;99.90;;;;;;5093646;28;19908;-68
2023/09/17 13:28:17;;;;;;;;;;;20.30;99.90;;;;;;5093074;28;20284;-70
2023/09/17 13:30:43;;;;;;;;;;;20.30;99.90;;;;;;5081887;28;19908;-70
2023/09/17 13:33:13;;;;;;;;;;;20.20;99.90;;;;;;5089468;28;20404;-70
2023/09/17 13:35:43;;;;;;;;;;;20.20;99.90;;;;;;5093223;28;19922;-68
2023/09/17 13:38:13;;;;;;;;;;;20.20;99.90;;;;;;5091539;28;19908;-72
2023/09/17 13:40:47;;;;;;;;;;;20.10;99.90;;;;;;5092724;28;19916;-69
2023/09/17 13:43:14;;;;;;;;;;;20.00;99.90;;;;;;5073193;28;20359;-70
2023/09/17 13:45:53;;;;;;;;;;;20.00;99.90;;;;;;5077334;28;20003;-71
2023/09/17 13:48:21;;;;;;;;;;;20.00;99.90;;;;;;5090054;28;19920;-70
2023/09/17 13:50:48;;;;;;;;;;;19.90;99.90;;;;;;5078027;28;19916;-71
2023/09/17 13:53:15;;;;;;;;;;;19.90;99.90;;;;;;5072877;28;19932;-69
2023/09/17 13:55:42;;;;;;;;;;;19.80;99.90;;;;;;5080278;28;19935;-70
2023/09/17 13:58:09;;;;;;;;;;;19.80;99.90;;;;;;5072150;28;20293;-69
2023/09/17 14:00:35;;;;;;;;;;;19.70;99.90;;;;;;5076768;28;19912;-68
2023/09/17 14:03:03;;;;;;;;;;;19.70;99.90;;;;;;5074896;28;20285;-69
2023/09/17 14:05:31;;;;;;;;;;;19.70;99.90;;;;;;5075393;28;19985;-70
2023/09/17 14:07:58;;;;;;;;;;;19.70;99.90;;;;;;5092456;28;19912;-70
2023/09/17 14:10:25;;;;;;;;;;;19.60;99.90;;;;;;5075395;28;19909;-70
2023/09/17 14:12:51;;;;;;;;;;;19.60;99.90;;;;;;5076398;28;19916;-69
2023/09/17 14:15:18;;;;;;;;;;;19.60;99.90;;;;;;5071815;28;19909;-68
2023/09/17 14:17:44;;;;;;;;;;;19.60;99.90;;;;;;5092342;28;19912;-70
2023/09/17 14:20:11;;;;;;;;;;;19.60;99.90;;;;;;5075621;28;19908;-72